Time;durP1;ratioP1;P1;durP2;ratioP2;P2;SDS_P1;SDS_P2;PMS_P1;PMS_P2;Temp;Humidity;BMP_temperature;BMP_pressure;BME280_temperature;BME280_humidity;BME280_pressure;Samples;Min_cycle;Max_cycle;Signal;HPM_P1;HPM_P2
2023/12/17 00:02:06;;;;;;;27.75;17.55;;;;;;;5.02;65.68;102172.78;4449980;32;20168;-78
2023/12/17 00:04:36;;;;;;;27.73;18.77;;;;;;;4.77;66.11;102174.78;4451762;32;20175;-78
2023/12/17 00:07:05;;;;;;;28.75;18.35;;;;;;;4.83;65.75;102186.97;4452347;32;20642;-78
2023/12/17 00:09:35;;;;;;;25.73;17.92;;;;;;;4.75;65.70;102184.44;4438002;32;20626;-77
2023/12/17 00:12:05;;;;;;;23.92;18.33;;;;;;;4.92;65.10;102186.91;4452197;32;20455;-78
2023/12/17 00:14:35;;;;;;;30.12;17.75;;;;;;;4.86;64.88;102189.56;4452371;32;20156;-77
2023/12/17 00:17:08;;;;;;;27.48;17.70;;;;;;;4.74;65.26;102187.94;4437952;32;20195;-77
2023/12/17 00:19:37;;;;;;;23.25;17.30;;;;;;;4.71;65.28;102193.19;4452271;32;20164;-78
2023/12/17 00:22:07;;;;;;;26.37;19.17;;;;;;;4.77;65.12;102194.91;4452273;32;20175;-78
2023/12/17 00:24:36;;;;;;;27.17;18.45;;;;;;;4.80;65.07;102184.41;4452111;32;20156;-78
2023/12/17 00:27:06;;;;;;;29.08;19.30;;;;;;;4.84;64.70;102180.84;4452230;32;20195;-77
2023/12/17 00:29:37;;;;;;;31.98;20.33;;;;;;;4.31;66.69;102190.88;4452580;32;20163;-78
2023/12/17 00:32:07;;;;;;;26.60;20.05;;;;;;;4.22;66.98;102187.44;4452209;32;20156;-78
2023/12/17 00:34:36;;;;;;;29.52;19.48;;;;;;;4.52;66.20;102175.87;4452009;32;20191;-78
2023/12/17 00:37:06;;;;;;;29.85;18.92;;;;;;;4.64;65.33;102173.16;4452248;32;20783;-78
2023/12/17 00:39:36;;;;;;;27.45;19.35;;;;;;;4.53;65.74;102175.84;4452234;32;20155;-77
2023/12/17 00:42:05;;;;;;;28.95;18.00;;;;;;;4.28;66.61;102175.16;4452131;32;20220;-77
2023/12/17 00:44:36;;;;;;;33.55;20.65;;;;;;;4.22;66.93;102176.97;4435680;32;20168;-77
2023/12/17 00:47:06;;;;;;;24.37;17.83;;;;;;;4.29;66.69;102183.91;4422452;32;20533;-78
2023/12/17 00:49:35;;;;;;;30.23;20.52;;;;;;;4.21;66.64;102183.09;4436926;32;20187;-78
2023/12/17 00:52:07;;;;;;;27.02;19.95;;;;;;;4.55;65.31;102171.44;4422913;32;20144;-78
2023/12/17 00:54:38;;;;;;;27.13;19.30;;;;;;;4.22;66.10;102177.81;4436274;32;20176;-78
2023/12/17 00:57:07;;;;;;;25.25;17.33;;;;;;;4.32;65.68;102161.16;4436676;32;20144;-78
2023/12/17 00:59:41;;;;;;;26.62;19.08;;;;;;;4.21;66.16;102173.47;4436806;32;20155;-78
2023/12/17 01:02:11;;;;;;;27.77;17.00;;;;;;;4.02;66.71;102177.06;4436868;32;20176;-78
2023/12/17 01:04:41;;;;;;;24.10;17.65;;;;;;;4.08;66.41;102180.56;4436359;32;20168;-78
2023/12/17 01:07:10;;;;;;;27.92;17.48;;;;;;;4.28;65.81;102187.44;4436704;32;20159;-78
2023/12/17 01:09:39;;;;;;;30.35;18.45;;;;;;;4.16;65.21;102191.88;4436673;32;20152;-78
2023/12/17 01:12:09;;;;;;;35.65;18.62;;;;;;;4.07;65.58;102191.03;4437012;32;20187;-78
2023/12/17 01:14:38;;;;;;;28.90;19.10;;;;;;;4.23;64.64;102182.19;4437702;32;20168;-78
2023/12/17 01:17:09;;;;;;;25.00;18.35;;;;;;;4.12;64.75;102179.66;4437829;32;20163;-78
2023/12/17 01:19:39;;;;;;;24.55;17.08;;;;;;;3.94;65.60;102183.22;4439687;32;20151;-77
2023/12/17 01:22:09;;;;;;;27.55;18.05;;;;;;;4.02;64.96;102191.06;4424101;32;20430;-77
2023/12/17 01:24:42;;;;;;;26.33;16.85;;;;;;;3.96;65.08;102188.50;4436562;32;20168;-77
2023/12/17 01:27:12;;;;;;;28.92;18.52;;;;;;;4.11;64.47;102184.88;4436333;32;20160;-77
2023/12/17 01:29:41;;;;;;;33.00;21.65;;;;;;;3.91;64.72;102185.00;4436823;32;20160;-77
2023/12/17 01:32:11;;;;;;;30.83;21.08;;;;;;;3.51;66.32;102173.81;4436493;32;20137;-77
2023/12/17 01:34:41;;;;;;;29.63;18.33;;;;;;;3.72;66.18;102164.97;4436850;32;20171;-78
2023/12/17 01:37:10;;;;;;;28.92;18.75;;;;;;;3.42;67.36;102164.25;4439234;32;20172;-78
2023/12/17 01:39:39;;;;;;;37.72;21.12;;;;;;;3.29;67.93;102173.03;4440725;32;20156;-78
2023/12/17 01:42:11;;;;;;;30.17;20.45;;;;;;;3.53;67.11;102169.47;4440601;32;20149;-78
2023/12/17 01:44:41;;;;;;;31.17;20.70;;;;;;;3.32;67.48;102175.63;4440926;32;20136;-78
2023/12/17 01:47:12;;;;;;;27.95;18.20;;;;;;;3.16;68.45;102188.75;4440465;32;20176;-78
2023/12/17 01:49:41;;;;;;;26.62;17.85;;;;;;;3.17;68.46;102192.28;4439335;32;20159;-78
2023/12/17 01:52:12;;;;;;;31.35;20.20;;;;;;;3.37;68.12;102195.72;4436649;32;20152;-78
2023/12/17 01:54:41;;;;;;;28.95;21.58;;;;;;;3.09;68.77;102192.28;4436123;32;20395;-78
2023/12/17 01:57:11;;;;;;;35.00;21.12;;;;;;;3.44;68.22;102186.06;4436583;32;20516;-78
2023/12/17 01:59:41;;;;;;;30.83;20.62;;;;;;;3.63;67.19;102185.13;4437367;32;20508;-78
2023/12/17 02:02:12;;;;;;;30.73;20.88;;;;;;;3.35;68.11;102173.00;4440345;32;20175;-78
2023/12/17 02:04:42;;;;;;;33.50;20.62;;;;;;;3.54;67.70;102187.78;4439922;32;20156;-78
2023/12/17 02:07:11;;;;;;;36.20;22.37;;;;;;;3.43;67.97;102197.44;4437417;32;20440;-78
2023/12/17 02:09:41;;;;;;;29.67;20.25;;;;;;;3.51;67.71;102195.66;4436921;32;20168;-78
2023/12/17 02:12:23;;;;;;;35.67;21.75;;;;;;;3.41;68.05;102175.63;4422412;32;20168;-78
2023/12/17 02:14:53;;;;;;;31.60;22.45;;;;;;;3.54;67.74;102176.44;4440344;32;20180;-78
2023/12/17 02:17:28;;;;;;;28.45;20.92;;;;;;;3.63;67.44;102187.75;4452030;32;20145;-78
2023/12/17 02:20:00;;;;;;;32.60;21.95;;;;;;;3.65;67.30;102185.13;4451770;32;20163;-78
2023/12/17 02:22:30;;;;;;;29.12;21.45;;;;;;;3.78;66.94;102180.69;4451704;32;20164;-78
2023/12/17 02:25:01;;;;;;;31.73;20.67;;;;;;;3.88;66.15;102175.41;4453759;32;20736;-78
2023/12/17 02:27:30;;;;;;;28.20;20.40;;;;;;;3.72;66.40;102180.72;4452696;32;20175;-78
2023/12/17 02:30:09;;;;;;;31.40;19.00;;;;;;;3.96;65.59;102170.13;4452221;32;20152;-78
2023/12/17 02:32:39;;;;;;;34.95;22.42;;;;;;;3.58;66.96;102179.03;4454613;32;20140;-78
2023/12/17 02:35:10;;;;;;;34.15;19.70;;;;;;;3.80;66.26;102177.22;4455624;32;20160;-78
2023/12/17 02:37:40;;;;;;;31.85;21.67;;;;;;;3.67;66.70;102172.87;4453783;32;20149;-78
2023/12/17 02:40:12;;;;;;;31.00;21.55;;;;;;;3.61;67.05;102184.28;4454262;32;20144;-78
2023/12/17 02:42:41;;;;;;;32.92;21.77;;;;;;;3.73;66.52;102172.00;4455120;32;20160;-78
2023/12/17 02:45:11;;;;;;;31.85;19.05;;;;;;;3.62;66.65;102167.66;4440966;32;20147;-78
2023/12/17 02:47:40;;;;;;;27.50;20.33;;;;;;;3.43;67.10;102158.13;4455036;32;20477;-78
2023/12/17 02:50:11;;;;;;;30.52;20.92;;;;;;;3.69;66.47;102151.03;4453078;32;20172;-78
2023/12/17 02:52:40;;;;;;;34.03;21.85;;;;;;;3.54;66.39;102144.97;4451822;32;20543;-78
2023/12/17 02:55:15;;;;;;;32.92;21.50;;;;;;;3.73;66.02;102148.41;4451578;32;20148;-78
2023/12/17 02:57:44;;;;;;;34.50;21.45;;;;;;;3.46;66.40;102150.25;4452429;32;20156;-78
2023/12/17 03:00:15;;;;;;;31.10;21.27;;;;;;;3.59;65.99;102148.44;4454476;32;20164;-78
2023/12/17 03:02:44;;;;;;;29.23;19.70;;;;;;;3.68;65.84;102138.81;4439489;32;20516;-78
2023/12/17 03:05:14;;;;;;;28.80;19.77;;;;;;;3.54;66.16;102140.59;4439286;32;20439;-78
2023/12/17 03:07:43;;;;;;;33.53;22.67;;;;;;;3.68;65.68;102120.47;4439778;32;20141;-78
2023/12/17 03:10:16;;;;;;;33.28;22.65;;;;;;;3.41;66.83;102128.44;4440327;32;20149;-78
2023/12/17 03:12:45;;;;;;;;;;;;;;;3.00;68.31;102133.78;4440588;32;20152;-78
2023/12/17 03:15:15;;;;;;;31.62;22.30;;;;;;;2.89;68.77;102128.56;4440549;32;20040;-78
2023/12/17 03:17:45;;;;;;;28.02;19.85;;;;;;;3.40;67.19;102119.69;4440316;32;20151;-79
2023/12/17 03:20:14;;;;;;;35.05;23.35;;;;;;;3.47;66.81;102120.53;4439934;32;20164;-78
2023/12/17 03:22:43;;;;;;;32.55;22.02;;;;;;;3.12;68.00;102139.88;4439339;32;20155;-78
2023/12/17 03:25:14;;;;;;;31.33;20.90;;;;;;;3.19;67.89;102143.34;4438545;32;20180;-78
2023/12/17 03:27:48;;;;;;;30.20;21.12;;;;;;;3.19;67.53;102153.84;4439855;32;20168;-78
2023/12/17 03:30:18;;;;;;;32.75;20.67;;;;;;;3.22;67.76;102142.50;4436568;32;20149;-78
2023/12/17 03:32:48;;;;;;;29.95;20.73;;;;;;;3.30;67.54;102135.47;4447046;32;20159;-78
2023/12/17 03:35:17;;;;;;;31.27;21.77;;;;;;;3.31;67.47;102138.06;4451626;32;20155;-78
2023/12/17 03:37:46;;;;;;;33.33;20.12;;;;;;;3.30;67.46;102145.94;4451359;32;20155;-78
2023/12/17 03:40:17;;;;;;;28.30;19.70;;;;;;;3.34;67.43;102140.69;4453024;32;20167;-78
2023/12/17 03:42:47;;;;;;;34.78;21.95;;;;;;;3.29;68.10;102128.50;4453115;32;20160;-78
2023/12/17 03:45:16;;;;;;;31.37;20.85;;;;;;;3.31;68.18;102126.72;4452836;32;20160;-78
2023/12/17 03:47:47;;;;;;;34.88;21.90;;;;;;;3.56;67.62;102137.97;4452751;32;20516;-79
2023/12/17 03:50:18;;;;;;;35.20;22.25;;;;;;;3.63;67.61;102127.44;4453543;32;20172;-79
2023/12/17 03:52:48;;;;;;;34.83;23.20;;;;;;;3.42;68.35;102124.94;4453375;32;20160;-78
2023/12/17 03:55:20;;;;;;;30.15;20.85;;;;;;;3.61;67.94;102120.50;4452889;32;20149;-78
2023/12/17 03:57:49;;;;;;;31.37;21.60;;;;;;;3.65;67.83;102125.72;4453193;32;20160;-79
2023/12/17 04:00:19;;;;;;;32.25;21.45;;;;;;;3.38;69.00;102123.22;4453595;32;20135;-79
2023/12/17 04:02:52;;;;;;;29.63;21.15;;;;;;;3.28;69.67;102117.13;4453119;32;20167;-79
2023/12/17 04:05:25;;;;;;;30.40;20.17;;;;;;;3.40;69.49;102116.19;4453158;32;20409;-79
2023/12/17 04:07:55;;;;;;;28.52;20.15;;;;;;;3.30;70.07;102123.25;4453587;32;20168;-79
2023/12/17 04:10:25;;;;;;;32.60;20.88;;;;;;;3.74;68.75;102121.28;4452899;32;20155;-79
2023/12/17 04:12:54;;;;;;;31.30;19.87;;;;;;;3.79;68.25;102122.13;4453625;32;20163;-79
2023/12/17 04:15:24;;;;;;;28.90;19.87;;;;;;;3.88;67.63;102124.69;4438539;32;20161;-79
2023/12/17 04:17:54;;;;;;;25.45;19.05;;;;;;;3.86;67.30;102111.59;4453128;32;20163;-79
2023/12/17 04:20:23;;;;;;;28.33;20.15;;;;;;;3.88;66.98;102106.31;4453486;32;20144;-79
2023/12/17 04:22:52;;;;;;;26.55;18.25;;;;;;;3.87;66.86;102102.84;4453180;32;20551;-79
2023/12/17 04:25:22;;;;;;;29.40;20.02;;;;;;;4.02;66.29;102096.62;4453215;32;20160;-79
2023/12/17 04:27:52;;;;;;;25.73;19.55;;;;;;;3.85;66.56;102095.88;4446641;32;20164;-79
2023/12/17 04:30:21;;;;;;;24.27;18.20;;;;;;;3.86;66.36;102098.47;4453163;32;20167;-79
2023/12/17 04:32:51;;;;;;;28.73;19.62;;;;;;;3.88;65.96;102098.47;4452811;32;20594;-79
2023/12/17 04:35:20;;;;;;;30.42;20.25;;;;;;;3.85;66.01;102098.50;4453360;32;20210;-79
2023/12/17 04:37:49;;;;;;;24.10;17.75;;;;;;;3.72;66.19;102102.94;4452987;32;20160;-79
2023/12/17 04:40:18;;;;;;;27.08;20.33;;;;;;;3.82;65.94;102102.00;4452977;32;20136;-79
2023/12/17 04:42:47;;;;;;;23.80;18.42;;;;;;;3.68;66.43;102101.19;4452966;32;20156;-79
2023/12/17 04:45:18;;;;;;;32.47;20.65;;;;;;;3.47;67.21;102103.94;4452707;32;20172;-79
2023/12/17 04:47:48;;;;;;;26.33;18.20;;;;;;;3.94;65.79;102108.94;4452819;32;20172;-79
2023/12/17 04:50:17;;;;;;;26.60;18.90;;;;;;;3.85;66.16;102109.88;4453249;32;20532;-79
2023/12/17 04:52:46;;;;;;;26.92;18.90;;;;;;;3.84;66.03;102107.22;4452955;32;20137;-79
2023/12/17 04:55:15;;;;;;;32.15;19.42;;;;;;;3.94;65.70;102099.31;4452659;32;20151;-79
2023/12/17 04:57:45;;;;;;;28.42;20.50;;;;;;;3.77;66.23;102105.56;4452926;32;20171;-79
2023/12/17 05:00:15;;;;;;;25.42;19.00;;;;;;;3.84;65.91;102100.25;4452897;32;20168;-79
2023/12/17 05:02:45;;;;;;;29.08;18.98;;;;;;;3.86;65.90;102108.09;4453020;32;20155;-79
2023/12/17 05:05:17;;;;;;;28.33;19.15;;;;;;;3.91;65.71;102107.19;4437334;32;20128;-79
2023/12/17 05:07:46;;;;;;;29.55;18.83;;;;;;;3.79;65.85;102116.88;4439675;32;20165;-79
2023/12/17 05:10:16;;;;;;;29.42;18.27;;;;;;;3.77;66.17;102118.66;4437309;32;20159;-79
2023/12/17 05:12:44;;;;;;;27.15;19.30;;;;;;;3.50;66.67;102122.28;4437140;32;20160;-79
2023/12/17 05:15:16;;;;;;;28.83;19.37;;;;;;;3.64;66.29;102116.09;4422977;32;20453;-79
2023/12/17 05:17:47;;;;;;;35.00;21.92;;;;;;;3.51;66.52;102122.28;4437040;32;20414;-79
2023/12/17 05:20:17;;;;;;;30.98;21.73;;;;;;;3.56;66.33;102125.72;4452862;32;20516;-79
2023/12/17 05:22:46;;;;;;;29.48;20.73;;;;;;;3.55;66.49;102113.50;4452435;32;20148;-79
2023/12/17 05:25:15;;;;;;;34.38;21.80;;;;;;;3.58;66.31;102128.37;4452205;32;20174;-79
2023/12/17 05:27:45;;;;;;;28.38;20.37;;;;;;;3.68;65.91;102115.22;4452261;32;20164;-79
2023/12/17 05:30:15;;;;;;;27.73;20.50;;;;;;;3.73;65.74;102123.03;4452738;32;20172;-79
2023/12/17 05:32:44;;;;;;;27.50;19.62;;;;;;;3.76;65.48;102122.13;4452782;32;20443;-79
2023/12/17 05:35:15;;;;;;;21.95;16.92;;;;;;;3.80;64.97;102122.13;4451744;32;20163;-79
2023/12/17 05:37:44;;;;;;;26.95;18.98;;;;;;;3.75;65.17;102116.03;4452314;32;20163;-79
2023/12/17 05:40:14;;;;;;;25.98;17.17;;;;;;;3.62;65.81;102122.22;4452241;32;20165;-79
2023/12/17 05:42:43;;;;;;;29.75;16.77;;;;;;;3.56;66.11;102127.47;4452023;32;20143;-79
2023/12/17 05:45:13;;;;;;;25.33;16.70;;;;;;;3.58;66.33;102131.00;4452217;32;20536;-79
2023/12/17 05:47:42;;;;;;;24.83;17.00;;;;;;;3.53;66.22;102130.16;4452910;32;20167;-79
2023/12/17 05:50:12;;;;;;;23.27;15.10;;;;;;;3.50;66.55;102140.62;4451996;32;20200;-79
2023/12/17 05:52:43;;;;;;;26.17;16.52;;;;;;;3.60;66.39;102135.34;4452274;32;20188;-79
2023/12/17 05:55:12;;;;;;;21.08;15.82;;;;;;;3.53;66.50;102128.37;4451972;32;20184;-79
2023/12/17 05:57:42;;;;;;;21.40;15.50;;;;;;;3.76;66.17;102127.38;4452310;32;20524;-79
2023/12/17 06:00:13;;;;;;;31.92;20.08;;;;;;;3.85;65.98;102128.22;4437480;32;20183;-79
2023/12/17 06:02:43;;;;;;;26.90;16.65;;;;;;;3.68;66.45;102127.41;4438171;32;20196;-79
2023/12/17 06:05:12;;;;;;;25.77;16.83;;;;;;;3.51;67.13;102127.50;4451955;32;20171;-79
2023/12/17 06:07:43;;;;;;;22.42;16.40;;;;;;;3.46;67.32;102131.91;4452100;32;20208;-79
2023/12/17 06:10:12;;;;;;;23.58;18.48;;;;;;;3.60;66.94;102139.69;4452163;32;20857;-79
2023/12/17 06:12:41;;;;;;;26.35;18.10;;;;;;;3.70;66.41;102126.53;4452083;32;20171;-79
2023/12/17 06:15:11;;;;;;;24.27;18.10;;;;;;;3.58;66.74;102112.63;4451946;32;20152;-79
2023/12/17 06:17:42;;;;;;;30.85;20.33;;;;;;;3.66;66.12;102109.09;4452346;32;20137;-79
2023/12/17 06:20:12;;;;;;;26.23;17.65;;;;;;;3.58;66.23;102100.41;4451634;32;20195;-79
2023/12/17 06:22:42;;;;;;;27.73;17.98;;;;;;;3.94;64.91;102103.69;4451659;32;20527;-79
2023/12/17 06:25:12;;;;;;;29.87;15.63;;;;;;;3.84;64.88;102104.59;4451653;32;20188;-79
2023/12/17 06:27:42;;;;;;;20.40;15.93;;;;;;;3.66;65.69;102103.84;4451863;32;20447;-79
2023/12/17 06:30:12;;;;;;;21.75;14.35;;;;;;;3.91;65.53;102103.69;4452351;32;20148;-79
2023/12/17 06:32:42;;;;;;;23.40;14.93;;;;;;;3.80;65.74;102103.78;4438593;32;20461;-79
2023/12/17 06:35:13;;;;;;;23.58;17.17;;;;;;;3.65;66.54;102096.00;4451783;32;20200;-79
2023/12/17 06:37:44;;;;;;;18.23;14.68;;;;;;;3.72;66.51;102086.31;4451981;32;20188;-79
2023/12/17 06:40:16;;;;;;;21.48;15.63;;;;;;;3.86;66.12;102085.38;4451884;32;20536;-79
2023/12/17 06:42:45;;;;;;;29.40;16.62;;;;;;;4.02;65.54;102094.00;4451485;32;20172;-79
2023/12/17 06:45:15;;;;;;;21.48;14.80;;;;;;;3.74;66.19;102101.19;4451814;32;20193;-79
2023/12/17 06:47:45;;;;;;;20.02;15.85;;;;;;;3.85;66.30;102085.38;4452368;32;20148;-79
2023/12/17 06:50:15;;;;;;;18.35;15.20;;;;;;;3.69;66.51;102087.25;4452875;32;20175;-80
2023/12/17 06:52:46;;;;;;;19.15;13.95;;;;;;;3.72;67.06;102089.81;4452178;32;20165;-79
2023/12/17 06:55:15;;;;;;;18.85;14.93;;;;;;;3.72;67.01;102086.31;4451640;32;20505;-79
2023/12/17 06:57:47;;;;;;;23.98;15.57;;;;;;;3.85;66.76;102086.25;4451715;32;20175;-79
2023/12/17 07:00:17;;;;;;;19.80;15.70;;;;;;;3.81;66.96;102091.53;4451578;32;20167;-79
2023/12/17 07:02:47;;;;;;;25.23;14.40;;;;;;;3.98;66.55;102094.03;4451140;32;20174;-79
2023/12/17 07:05:16;;;;;;;23.10;15.63;;;;;;;4.11;66.09;102093.06;4451625;32;20196;-79
2023/12/17 07:07:48;;;;;;;23.05;15.23;;;;;;;4.08;66.35;102090.44;4451337;32;20168;-79
2023/12/17 07:10:17;;;;;;;21.67;16.20;;;;;;;4.23;66.03;102094.72;4450987;32;20168;-79
2023/12/17 07:12:46;;;;;;;23.27;16.90;;;;;;;4.27;65.78;102097.31;4452318;32;20164;-78
2023/12/17 07:15:19;;;;;;;18.20;14.70;;;;;;;4.34;65.45;102092.88;4453429;32;20172;-79
2023/12/17 07:17:49;;;;;;;22.90;13.77;;;;;;;4.40;65.21;102091.09;4453568;32;20140;-79
2023/12/17 07:20:19;;;;;;;18.20;12.75;;;;;;;4.44;65.17;102082.31;4453807;32;20148;-79
2023/12/17 07:22:50;;;;;;;19.25;14.60;;;;;;;4.21;66.08;102084.25;4453075;32;20152;-79
2023/12/17 07:25:24;;;;;;;23.45;14.70;;;;;;;4.34;65.88;102082.38;4453115;32;20798;-79
2023/12/17 07:27:53;;;;;;;21.98;15.43;;;;;;;4.62;65.19;102077.75;4453059;32;20186;-79
2023/12/17 07:30:23;;;;;;;23.62;17.20;;;;;;;4.61;65.42;102079.50;4453274;32;20184;-80
2023/12/17 07:32:52;;;;;;;19.65;15.02;;;;;;;4.62;65.44;102081.25;4452982;32;20203;-80
2023/12/17 07:35:26;;;;;;;20.98;16.25;;;;;;;4.78;65.27;102081.94;4439474;32;20227;-79
2023/12/17 07:37:56;;;;;;;23.40;16.98;;;;;;;4.83;65.24;102076.66;4423304;32;20168;-80
2023/12/17 07:40:26;;;;;;;23.33;17.52;;;;;;;4.93;65.42;102086.19;4437165;32;20164;-79
2023/12/17 07:42:55;;;;;;;23.58;16.80;;;;;;;5.10;65.09;102085.97;4437239;32;20156;-79
2023/12/17 07:45:25;;;;;;;23.67;15.18;;;;;;;5.21;65.01;102080.59;4437067;32;20157;-79
2023/12/17 07:47:54;;;;;;;15.05;12.30;;;;;;;5.73;64.41;102069.38;4437475;32;20144;-79
2023/12/17 07:50:23;;;;;;;18.42;15.52;;;;;;;6.22;62.99;102074.81;4437722;32;20156;-79
2023/12/17 07:52:52;;;;;;;26.62;15.85;;;;;;;6.85;61.63;102078.94;4431411;32;20199;-78
2023/12/17 07:55:23;;;;;;;28.45;18.92;;;;;;;7.19;59.25;102075.66;4437006;32;20168;-78
2023/12/17 07:57:52;;;;;;;33.45;19.55;;;;;;;7.59;58.34;102067.75;4437524;32;20160;-78
2023/12/17 08:00:28;;;;;;;23.35;16.40;;;;;;;8.02;56.60;102075.53;4423580;32;20180;-79
2023/12/17 08:02:57;;;;;;;19.60;13.40;;;;;;;8.41;55.30;102072.00;4423266;32;20505;-78
2023/12/17 08:05:26;;;;;;;15.77;10.23;;;;;;;8.90;54.06;102068.91;4437350;32;20185;-78
2023/12/17 08:07:56;;;;;;;9.75;7.97;;;;;;;9.61;52.44;102071.22;4436734;32;20155;-78
2023/12/17 08:10:26;;;;;;;12.37;8.57;;;;;;;11.03;61.37;102078.00;4436532;32;20176;-78
2023/12/17 08:12:55;;;;;;;11.15;8.43;;;;;;;12.17;54.34;102071.84;4436609;32;20124;-77
2023/12/17 08:15:25;;;;;;;13.18;9.73;;;;;;;13.12;51.03;102079.22;4436323;32;20528;-78
2023/12/17 08:17:55;;;;;;;17.67;9.18;;;;;;;13.53;43.91;102077.34;4436509;32;20451;-78
2023/12/17 08:20:24;;;;;;;11.95;7.95;;;;;;;13.87;44.21;102080.22;4437048;32;20552;-78
2023/12/17 08:22:53;;;;;;;12.45;8.00;;;;;;;13.89;43.59;102081.84;4422398;32;20189;-78
2023/12/17 08:25:23;;;;;;;17.12;11.00;;;;;;;14.34;41.73;102077.03;4435992;32;20184;-77
2023/12/17 08:27:53;;;;;;;11.55;8.52;;;;;;;14.79;39.08;102062.28;4436684;32;20156;-77
2023/12/17 08:30:23;;;;;;;11.55;8.73;;;;;;;14.63;37.94;102057.72;4436552;32;20160;-78
2023/12/17 08:32:52;;;;;;;8.35;6.62;;;;;;;14.12;38.93;102070.06;4436573;32;20436;-77
2023/12/17 08:35:22;;;;;;;8.07;6.40;;;;;;;14.18;38.28;102071.59;4436849;32;20172;-77
2023/12/17 08:37:58;;;;;;;10.02;6.35;;;;;;;12.86;40.28;102076.88;4430274;32;20579;-78
2023/12/17 08:40:27;;;;;;;10.80;6.28;;;;;;;13.21;39.88;102081.47;4436627;32;20144;-78
2023/12/17 08:42:58;;;;;;;8.07;6.45;;;;;;;13.11;40.33;102097.94;4436520;32;20160;-77
2023/12/17 08:45:28;;;;;;;10.50;6.20;;;;;;;13.05;40.53;102102.59;4436189;32;20175;-77
2023/12/17 08:47:57;;;;;;;9.40;6.00;;;;;;;13.22;40.40;102100.97;4422359;32;20160;-77
2023/12/17 08:50:27;;;;;;;10.27;6.32;;;;;;;13.02;40.61;102101.84;4436742;32;20184;-77
2023/12/17 08:52:57;;;;;;;8.52;6.50;;;;;;;13.02;40.71;102096.53;4436508;32;20168;-78
2023/12/17 08:55:27;;;;;;;11.82;7.68;;;;;;;13.13;40.74;102104.91;4435947;32;20184;-77
2023/12/17 08:57:56;;;;;;;11.45;6.37;;;;;;;13.38;40.34;102090.50;4436449;32;20164;-78
2023/12/17 09:00:27;;;;;;;8.57;5.82;;;;;;;13.31;39.24;102099.75;4436370;32;20156;-77
2023/12/17 09:02:56;;;;;;;8.65;6.20;;;;;;;12.55;40.32;102112.75;4436366;32;20434;-77
2023/12/17 09:05:26;;;;;;;8.60;5.40;;;;;;;12.57;41.32;102118.03;4436500;32;20192;-77
2023/12/17 09:07:55;;;;;;;8.52;6.28;;;;;;;12.41;41.12;102108.03;4436314;32;20172;-77
2023/12/17 09:10:25;;;;;;;7.93;5.82;;;;;;;12.26;41.76;102109.53;4436201;32;20168;-77
2023/12/17 09:12:55;;;;;;;7.45;5.55;;;;;;;12.12;41.82;102095.09;4436260;32;20168;-77
2023/12/17 09:15:25;;;;;;;9.70;5.95;;;;;;;11.60;42.51;102102.41;4436241;32;20168;-76
2023/12/17 09:17:55;;;;;;;13.13;5.72;;;;;;;11.64;42.75;102109.34;4430094;32;20196;-76
2023/12/17 09:20:24;;;;;;;12.60;6.65;;;;;;;11.52;43.01;102097.41;4436049;32;20164;-77
2023/12/17 09:22:54;;;;;;;10.85;6.22;;;;;;;11.52;43.05;102094.75;4429695;32;20176;-77
2023/12/17 09:25:23;;;;;;;9.85;6.85;;;;;;;11.67;43.10;102106.56;4435669;32;20171;-77
2023/12/17 09:27:53;;;;;;;12.55;6.87;;;;;;;11.96;42.41;102100.16;4435948;32;20136;-77
2023/12/17 09:30:22;;;;;;;11.50;7.53;;;;;;;12.42;42.14;102093.81;4435967;32;20148;-77
2023/12/17 09:32:51;;;;;;;8.60;6.55;;;;;;;12.51;41.88;102093.44;4436338;32;20136;-78
2023/12/17 09:35:22;;;;;;;8.77;6.12;;;;;;;12.29;41.46;102098.78;4435550;32;20421;-79
2023/12/17 09:37:51;;;;;;;10.80;7.32;;;;;;;12.98;40.25;102090.47;4436235;32;20156;-78
2023/12/17 09:40:21;;;;;;;10.13;7.10;;;;;;;12.55;41.15;102088.81;4436238;32;20457;-78
2023/12/17 09:42:52;;;;;;;9.70;7.18;;;;;;;12.95;40.39;102082.66;4436004;32;20537;-78
2023/12/17 09:45:22;;;;;;;12.13;7.10;;;;;;;12.98;40.20;102082.50;4436100;32;20164;-78
2023/12/17 09:47:52;;;;;;;8.77;6.40;;;;;;;13.47;39.19;102068.81;4429852;32;20144;-79
2023/12/17 09:50:24;;;;;;;10.98;6.07;;;;;;;13.90;38.30;102064.09;4436388;32;20195;-79
2023/12/17 09:52:54;;;;;;;9.38;6.30;;;;;;;13.66;38.69;102053.69;4429765;32;20160;-79
2023/12/17 09:55:23;;;;;;;8.82;6.03;;;;;;;13.49;38.81;102059.78;4436258;32;20143;-78
2023/12/17 09:57:53;;;;;;;9.85;6.60;;;;;;;12.94;39.85;102059.63;4415788;32;20541;-78
2023/12/17 10:00:23;;;;;;;9.73;6.45;;;;;;;12.93;40.24;102057.91;4435599;32;20168;-78
2023/12/17 10:03:02;;;;;;;10.63;6.28;;;;;;;12.50;40.70;102062.44;4435634;32;20168;-77
2023/12/17 10:05:33;;;;;;;8.02;5.75;;;;;;;12.31;40.98;102056.16;4435863;32;20168;-78
2023/12/17 10:08:03;;;;;;;8.05;6.80;;;;;;;12.23;41.64;102055.62;4435701;32;20132;-78
2023/12/17 10:10:32;;;;;;;9.30;6.20;;;;;;;12.10;41.75;102049.97;4435559;32;20540;-78
2023/12/17 10:13:01;;;;;;;10.57;7.28;;;;;;;12.04;41.94;102051.09;4435710;32;20160;-78
2023/12/17 10:15:36;;;;;;;12.60;6.50;;;;;;;12.38;41.51;102048.81;4435595;32;20172;-78
2023/12/17 10:18:06;;;;;;;10.10;7.05;;;;;;;12.83;41.08;102050.37;4435589;32;20200;-78
2023/12/17 10:20:39;;;;;;;14.60;6.68;;;;;;;12.65;41.32;102039.63;4421563;32;20479;-78
2023/12/17 10:23:08;;;;;;;9.40;6.50;;;;;;;12.88;40.52;102038.62;4435535;32;20164;-77
2023/12/17 10:25:38;;;;;;;10.95;6.60;;;;;;;13.20;40.13;102018.53;4435702;32;20160;-77
2023/12/17 10:28:09;;;;;;;10.57;6.80;;;;;;;13.20;40.39;102025.66;4421429;32;20183;-78
2023/12/17 10:30:40;;;;;;;15.00;7.12;;;;;;;12.65;40.99;102025.47;4435534;32;20171;-78
2023/12/17 10:33:15;;;;;;;12.05;7.10;;;;;;;13.13;40.28;102017.06;4435597;32;20175;-77
2023/12/17 10:35:47;;;;;;;11.57;7.35;;;;;;;12.84;40.61;102025.53;4447545;32;20175;-77
2023/12/17 10:38:19;;;;;;;11.85;5.87;;;;;;;12.88;40.25;102021.81;4451449;32;20457;-78
2023/12/17 10:40:50;;;;;;;8.82;5.75;;;;;;;13.24;39.75;102016.63;4451000;32;20178;-78
2023/12/17 10:43:19;;;;;;;6.97;5.95;;;;;;;12.97;39.96;102011.59;4451217;32;20163;-77
2023/12/17 10:45:52;;;;;;;11.60;6.70;;;;;;;12.68;40.58;102010.25;4450818;32;20179;-78
2023/12/17 10:48:22;;;;;;;12.32;7.05;;;;;;;12.61;40.23;102010.59;4450411;32;20164;-77
2023/12/17 10:50:58;;;;;;;11.68;6.70;;;;;;;12.91;40.26;102003.91;4444567;32;20432;-78
2023/12/17 10:53:34;;;;;;;10.75;7.10;;;;;;;13.08;39.57;101996.94;4451209;32;20195;-78
2023/12/17 10:56:04;;;;;;;9.90;5.80;;;;;;;13.23;39.37;101996.25;4445666;32;159626;-78
2023/12/17 10:58:34;;;;;;;11.65;6.87;;;;;;;12.78;40.00;101984.09;4450828;32;20136;-78
2023/12/17 11:01:07;;;;;;;14.45;6.65;;;;;;;12.39;40.67;101997.34;4450932;32;20501;-77
2023/12/17 11:03:37;;;;;;;11.57;5.87;;;;;;;12.58;40.28;101998.28;4450733;32;20160;-78
2023/12/17 11:06:09;;;;;;;8.75;5.93;;;;;;;12.61;40.89;102000.81;4436310;32;20177;-78
2023/12/17 11:08:38;;;;;;;8.60;5.15;;;;;;;12.80;39.40;101993.75;4450920;32;20171;-78
2023/12/17 11:11:07;;;;;;;8.23;5.22;;;;;;;12.79;39.17;101994.69;4436371;32;20199;-78
2023/12/17 11:13:43;;;;;;;7.40;4.37;;;;;;;12.90;38.41;101988.00;4450591;32;20177;-78
2023/12/17 11:16:21;;;;;;;11.02;5.28;;;;;;;13.26;38.34;101983.69;4450516;32;20168;-77
2023/12/17 11:18:54;;;;;;;7.80;4.65;;;;;;;13.00;38.23;101981.31;4444722;32;20165;-78
2023/12/17 11:21:29;;;;;;;7.43;5.05;;;;;;;12.53;39.41;101989.66;4450638;32;20160;-78
2023/12/17 11:23:58;;;;;;;10.57;4.65;;;;;;;12.97;38.78;101981.47;4444980;32;20141;-77
2023/12/17 11:26:27;;;;;;;11.60;5.95;;;;;;;11.39;40.57;101969.59;4450822;32;20175;-78
2023/12/17 11:28:57;;;;;;;11.73;5.90;;;;;;;11.88;40.21;101978.28;4450527;32;20156;-78
2023/12/17 11:31:25;;;;;;;9.73;6.28;;;;;;;11.72;40.99;101975.34;4450440;32;20152;-78
2023/12/17 11:33:56;;;;;;;11.02;5.30;;;;;;;12.05;40.36;101974.91;4450556;32;20179;-78